Silver Lake, South Dakota
Current Conditions -  °F | °C
As of 3:53 PM on Sunday 21 Dec 2014 (Local Time) from KMHE Reporting Station
Clear Clear  
Wind Chill: 27°   Ceiling: Unl
Heat Index: 37°   Visibility: 8mi
Dew Point: 33°   Wind: 17mph
Humidity: 86%   Direction: 160°SSE
Pressure: 29.51"   Gusts: NA
Location:  43.5669°N, 97.5001°W
Report Text: KMHE 212153Z AUTO 16015KT 8SM CLR 03/01 A2951 RMK AO2 SLP004 T00280006
Loading
Personal Weather Stations






























Interactive Weather Map New forecast layout! Learn more

10-Day Weather Forecast

Advertisements
Track Severe Weather on mobile